sensor_id;sensor_type;location;lat;lon;timestamp;temperature;humidity
20070;DHT22;10195;50.868;4.382;2023-04-25T00:00:52;8.80;99.90
20070;DHT22;10195;50.868;4.382;2023-04-25T00:03:18;8.90;99.90
20070;DHT22;10195;50.868;4.382;2023-04-25T00:05:44;8.90;99.90
20070;DHT22;10195;50.868;4.382;2023-04-25T00:08:10;8.80;99.90
20070;DHT22;10195;50.868;4.382;2023-04-25T00:10:36;8.90;99.90
20070;DHT22;10195;50.868;4.382;2023-04-25T00:13:02;8.90;99.90
20070;DHT22;10195;50.868;4.382;2023-04-25T00:15:28;8.90;99.90
20070;DHT22;10195;50.868;4.382;2023-04-25T00:17:56;8.80;99.90
20070;DHT22;10195;50.868;4.382;2023-04-25T00:20:22;8.90;99.90
20070;DHT22;10195;50.868;4.382;2023-04-25T00:22:49;8.90;99.90
20070;DHT22;10195;50.868;4.382;2023-04-25T00:25:15;8.90;99.90
20070;DHT22;10195;50.868;4.382;2023-04-25T00:27:40;9.00;99.90
20070;DHT22;10195;50.868;4.382;2023-04-25T00:30:07;9.00;99.90
20070;DHT22;10195;50.868;4.382;2023-04-25T00:32:33;9.00;99.90
20070;DHT22;10195;50.868;4.382;2023-04-25T00:34:59;9.20;99.90
20070;DHT22;10195;50.868;4.382;2023-04-25T00:37:25;9.20;99.90
20070;DHT22;10195;50.868;4.382;2023-04-25T00:39:51;9.30;99.90
20070;DHT22;10195;50.868;4.382;2023-04-25T00:42:19;9.40;99.90
20070;DHT22;10195;50.868;4.382;2023-04-25T00:44:45;9.50;99.90
20070;DHT22;10195;50.868;4.382;2023-04-25T00:47:11;9.60;99.90
20070;DHT22;10195;50.868;4.382;2023-04-25T00:49:36;9.50;99.90
20070;DHT22;10195;50.868;4.382;2023-04-25T00:52:02;9.40;99.90
20070;DHT22;10195;50.868;4.382;2023-04-25T00:54:28;9.30;99.90
20070;DHT22;10195;50.868;4.382;2023-04-25T00:56:55;9.20;99.90
20070;DHT22;10195;50.868;4.382;2023-04-25T00:59:21;9.10;99.90
20070;DHT22;10195;50.868;4.382;2023-04-25T01:01:47;9.00;99.90
20070;DHT22;10195;50.868;4.382;2023-04-25T01:04:13;9.00;99.90
20070;DHT22;10195;50.868;4.382;2023-04-25T01:06:39;9.00;99.90
20070;DHT22;10195;50.868;4.382;2023-04-25T01:09:05;9.00;99.90
20070;DHT22;10195;50.868;4.382;2023-04-25T01:11:31;9.00;99.90
20070;DHT22;10195;50.868;4.382;2023-04-25T01:13:57;9.20;99.90
20070;DHT22;10195;50.868;4.382;2023-04-25T01:16:23;9.30;99.90
20070;DHT22;10195;50.868;4.382;2023-04-25T01:18:52;9.40;99.90
20070;DHT22;10195;50.868;4.382;2023-04-25T01:21:18;9.50;99.90
20070;DHT22;10195;50.868;4.382;2023-04-25T01:23:43;9.60;99.90
20070;DHT22;10195;50.868;4.382;2023-04-25T01:26:11;9.50;99.90
20070;DHT22;10195;50.868;4.382;2023-04-25T01:28:38;9.60;99.90
20070;DHT22;10195;50.868;4.382;2023-04-25T01:31:06;9.50;99.90
20070;DHT22;10195;50.868;4.382;2023-04-25T01:33:32;9.40;99.90
20070;DHT22;10195;50.868;4.382;2023-04-25T01:35:58;9.20;99.90
20070;DHT22;10195;50.868;4.382;2023-04-25T01:38:24;9.20;99.90
20070;DHT22;10195;50.868;4.382;2023-04-25T01:40:51;9.10;99.90
20070;DHT22;10195;50.868;4.382;2023-04-25T01:43:17;9.10;99.90
20070;DHT22;10195;50.868;4.382;2023-04-25T01:45:43;9.10;99.90
20070;DHT22;10195;50.868;4.382;2023-04-25T01:48:11;8.90;99.90
20070;DHT22;10195;50.868;4.382;2023-04-25T01:50:38;8.60;99.90
20070;DHT22;10195;50.868;4.382;2023-04-25T01:53:04;8.50;99.90
20070;DHT22;10195;50.868;4.382;2023-04-25T01:55:30;8.50;99.90
20070;DHT22;10195;50.868;4.382;2023-04-25T01:57:56;8.30;99.90
20070;DHT22;10195;50.868;4.382;2023-04-25T02:00:23;8.30;99.90
20070;DHT22;10195;50.868;4.382;2023-04-25T02:02:48;8.40;99.90
20070;DHT22;10195;50.868;4.382;2023-04-25T02:05:16;8.30;99.90
20070;DHT22;10195;50.868;4.382;2023-04-25T02:07:42;8.20;99.90
20070;DHT22;10195;50.868;4.382;2023-04-25T02:10:08;8.10;99.90
20070;DHT22;10195;50.868;4.382;2023-04-25T02:12:35;8.10;99.90
20070;DHT22;10195;50.868;4.382;2023-04-25T02:15:02;8.10;99.90
20070;DHT22;10195;50.868;4.382;2023-04-25T02:17:27;8.10;99.90
20070;DHT22;10195;50.868;4.382;2023-04-25T02:19:53;8.20;99.90
20070;DHT22;10195;50.868;4.382;2023-04-25T02:22:19;8.20;99.90
20070;DHT22;10195;50.868;4.382;2023-04-25T02:24:45;8.20;99.90
20070;DHT22;10195;50.868;4.382;2023-04-25T02:27:11;8.20;99.90
20070;DHT22;10195;50.868;4.382;2023-04-25T02:29:37;8.20;99.90
20070;DHT22;10195;50.868;4.382;2023-04-25T02:32:03;8.20;99.90
20070;DHT22;10195;50.868;4.382;2023-04-25T02:34:29;8.30;99.90
20070;DHT22;10195;50.868;4.382;2023-04-25T02:36:55;8.30;99.90
20070;DHT22;10195;50.868;4.382;2023-04-25T02:39:20;8.30;99.90
20070;DHT22;10195;50.868;4.382;2023-04-25T02:41:47;8.30;99.90
20070;DHT22;10195;50.868;4.382;2023-04-25T02:44:13;8.10;99.90
20070;DHT22;10195;50.868;4.382;2023-04-25T02:46:39;8.10;99.90
20070;DHT22;10195;50.868;4.382;2023-04-25T02:49:04;8.10;99.90
20070;DHT22;10195;50.868;4.382;2023-04-25T02:51:30;8.10;99.90
20070;DHT22;10195;50.868;4.382;2023-04-25T02:53:56;8.20;99.90
20070;DHT22;10195;50.868;4.382;2023-04-25T02:56:22;8.30;99.90
20070;DHT22;10195;50.868;4.382;2023-04-25T02:58:47;8.40;99.90
20070;DHT22;10195;50.868;4.382;2023-04-25T03:01:13;8.30;99.90
20070;DHT22;10195;50.868;4.382;2023-04-25T03:03:38;8.30;99.90
20070;DHT22;10195;50.868;4.382;2023-04-25T03:06:05;8.40;99.90
20070;DHT22;10195;50.868;4.382;2023-04-25T03:08:30;8.40;99.90
20070;DHT22;10195;50.868;4.382;2023-04-25T03:10:58;8.40;99.90
20070;DHT22;10195;50.868;4.382;2023-04-25T03:13:24;8.30;99.90
20070;DHT22;10195;50.868;4.382;2023-04-25T03:15:49;8.20;99.90
20070;DHT22;10195;50.868;4.382;2023-04-25T03:18:15;8.10;99.90
20070;DHT22;10195;50.868;4.382;2023-04-25T03:20:41;8.10;99.90
20070;DHT22;10195;50.868;4.382;2023-04-25T03:23:07;8.00;99.90
20070;DHT22;10195;50.868;4.382;2023-04-25T03:25:33;7.90;99.90
20070;DHT22;10195;50.868;4.382;2023-04-25T03:27:58;7.90;99.90
20070;DHT22;10195;50.868;4.382;2023-04-25T03:30:24;8.00;99.90
20070;DHT22;10195;50.868;4.382;2023-04-25T03:32:50;7.90;99.90
20070;DHT22;10195;50.868;4.382;2023-04-25T03:35:16;7.90;99.90
20070;DHT22;10195;50.868;4.382;2023-04-25T03:37:42;7.80;99.90
20070;DHT22;10195;50.868;4.382;2023-04-25T03:40:11;7.80;99.90
20070;DHT22;10195;50.868;4.382;2023-04-25T03:42:37;7.90;99.90
20070;DHT22;10195;50.868;4.382;2023-04-25T03:45:03;7.80;99.90
20070;DHT22;10195;50.868;4.382;2023-04-25T03:47:29;7.70;99.90
20070;DHT22;10195;50.868;4.382;2023-04-25T03:49:54;7.80;99.90
20070;DHT22;10195;50.868;4.382;2023-04-25T03:52:20;7.80;99.90
20070;DHT22;10195;50.868;4.382;2023-04-25T03:54:46;7.80;99.90
20070;DHT22;10195;50.868;4.382;2023-04-25T03:57:11;7.80;99.90
20070;DHT22;10195;50.868;4.382;2023-04-25T03:59:37;7.90;99.90
20070;DHT22;10195;50.868;4.382;2023-04-25T04:02:03;8.00;99.90
20070;DHT22;10195;50.868;4.382;2023-04-25T04:04:28;8.00;99.90
20070;DHT22;10195;50.868;4.382;2023-04-25T04:06:54;8.00;99.90
20070;DHT22;10195;50.868;4.382;2023-04-25T04:09:19;7.90;99.90
20070;DHT22;10195;50.868;4.382;2023-04-25T04:11:45;8.00;99.90
20070;DHT22;10195;50.868;4.382;2023-04-25T04:14:11;8.00;99.90
20070;DHT22;10195;50.868;4.382;2023-04-25T04:16:37;8.20;99.90
20070;DHT22;10195;50.868;4.382;2023-04-25T04:19:03;8.30;99.90
20070;DHT22;10195;50.868;4.382;2023-04-25T04:21:28;8.40;99.90
20070;DHT22;10195;50.868;4.382;2023-04-25T04:23:55;8.20;99.90
20070;DHT22;10195;50.868;4.382;2023-04-25T04:26:23;8.10;99.90
20070;DHT22;10195;50.868;4.382;2023-04-25T04:28:52;8.10;99.90
20070;DHT22;10195;50.868;4.382;2023-04-25T04:31:22;8.10;99.90
20070;DHT22;10195;50.868;4.382;2023-04-25T04:33:48;7.90;99.90
20070;DHT22;10195;50.868;4.382;2023-04-25T04:36:13;7.90;99.90
20070;DHT22;10195;50.868;4.382;2023-04-25T04:38:39;7.90;99.90
20070;DHT22;10195;50.868;4.382;2023-04-25T04:41:09;8.10;99.90
20070;DHT22;10195;50.868;4.382;2023-04-25T04:43:35;8.30;99.90
20070;DHT22;10195;50.868;4.382;2023-04-25T04:46:01;8.50;99.90
20070;DHT22;10195;50.868;4.382;2023-04-25T04:48:26;8.60;99.90
20070;DHT22;10195;50.868;4.382;2023-04-25T04:50:53;8.60;99.90
20070;DHT22;10195;50.868;4.382;2023-04-25T04:53:19;8.50;99.90
20070;DHT22;10195;50.868;4.382;2023-04-25T04:55:44;7.90;99.90
20070;DHT22;10195;50.868;4.382;2023-04-25T04:58:11;7.60;99.90
20070;DHT22;10195;50.868;4.382;2023-04-25T05:00:37;7.50;99.90
20070;DHT22;10195;50.868;4.382;2023-04-25T05:03:03;7.50;99.90
20070;DHT22;10195;50.868;4.382;2023-04-25T05:05:30;7.40;99.90
20070;DHT22;10195;50.868;4.382;2023-04-25T05:07:56;7.40;99.90
20070;DHT22;10195;50.868;4.382;2023-04-25T05:10:22;7.40;99.90
20070;DHT22;10195;50.868;4.382;2023-04-25T05:12:47;7.50;99.90
20070;DHT22;10195;50.868;4.382;2023-04-25T05:15:14;7.40;99.90
20070;DHT22;10195;50.868;4.382;2023-04-25T05:17:39;7.40;99.90
20070;DHT22;10195;50.868;4.382;2023-04-25T05:20:07;7.60;99.90
20070;DHT22;10195;50.868;4.382;2023-04-25T05:22:34;7.60;99.90
20070;DHT22;10195;50.868;4.382;2023-04-25T05:25:01;7.60;99.90
20070;DHT22;10195;50.868;4.382;2023-04-25T05:27:26;7.70;99.90
20070;DHT22;10195;50.868;4.382;2023-04-25T05:29:52;7.60;99.90
20070;DHT22;10195;50.868;4.382;2023-04-25T05:32:18;7.60;99.90
20070;DHT22;10195;50.868;4.382;2023-04-25T05:34:44;7.70;99.90
20070;DHT22;10195;50.868;4.382;2023-04-25T05:37:09;7.80;99.90
20070;DHT22;10195;50.868;4.382;2023-04-25T05:39:35;7.80;99.90
20070;DHT22;10195;50.868;4.382;2023-04-25T05:42:01;7.80;99.90
20070;DHT22;10195;50.868;4.382;2023-04-25T05:44:27;8.00;99.90
20070;DHT22;10195;50.868;4.382;2023-04-25T05:46:54;8.10;99.90
20070;DHT22;10195;50.868;4.382;2023-04-25T05:49:20;8.30;99.90
20070;DHT22;10195;50.868;4.382;2023-04-25T05:51:46;8.30;99.90
20070;DHT22;10195;50.868;4.382;2023-04-25T05:54:12;8.20;99.90
20070;DHT22;10195;50.868;4.382;2023-04-25T05:56:37;8.30;99.90
20070;DHT22;10195;50.868;4.382;2023-04-25T05:59:03;8.40;99.90
20070;DHT22;10195;50.868;4.382;2023-04-25T06:01:29;8.40;99.90
20070;DHT22;10195;50.868;4.382;2023-04-25T06:03:54;8.40;99.90
20070;DHT22;10195;50.868;4.382;2023-04-25T06:06:21;8.40;99.90
20070;DHT22;10195;50.868;4.382;2023-04-25T06:08:47;8.40;99.90
20070;DHT22;10195;50.868;4.382;2023-04-25T06:11:13;8.30;99.90
20070;DHT22;10195;50.868;4.382;2023-04-25T06:13:38;8.10;99.90
20070;DHT22;10195;50.868;4.382;2023-04-25T06:16:04;8.10;99.90
20070;DHT22;10195;50.868;4.382;2023-04-25T06:18:30;8.00;99.90
20070;DHT22;10195;50.868;4.382;2023-04-25T06:20:56;8.10;99.90
20070;DHT22;10195;50.868;4.382;2023-04-25T06:23:21;8.10;99.90
20070;DHT22;10195;50.868;4.382;2023-04-25T06:25:47;8.20;99.90
20070;DHT22;10195;50.868;4.382;2023-04-25T06:28:13;8.20;99.90
20070;DHT22;10195;50.868;4.382;2023-04-25T06:30:38;8.20;99.90
20070;DHT22;10195;50.868;4.382;2023-04-25T06:33:04;8.30;99.90
20070;DHT22;10195;50.868;4.382;2023-04-25T06:35:30;8.60;99.90
20070;DHT22;10195;50.868;4.382;2023-04-25T06:37:55;8.80;99.90
20070;DHT22;10195;50.868;4.382;2023-04-25T06:40:21;8.90;99.90
20070;DHT22;10195;50.868;4.382;2023-04-25T06:42:47;8.70;99.90
20070;DHT22;10195;50.868;4.382;2023-04-25T06:45:12;8.50;99.90
20070;DHT22;10195;50.868;4.382;2023-04-25T06:47:38;8.60;99.90
20070;DHT22;10195;50.868;4.382;2023-04-25T06:50:04;8.80;99.90
20070;DHT22;10195;50.868;4.382;2023-04-25T06:52:31;9.00;99.90
20070;DHT22;10195;50.868;4.382;2023-04-25T06:54:56;9.20;99.90
20070;DHT22;10195;50.868;4.382;2023-04-25T06:57:22;9.30;99.90
20070;DHT22;10195;50.868;4.382;2023-04-25T06:59:48;9.20;99.90
20070;DHT22;10195;50.868;4.382;2023-04-25T07:02:14;8.90;99.90
20070;DHT22;10195;50.868;4.382;2023-04-25T07:04:40;8.80;99.90
20070;DHT22;10195;50.868;4.382;2023-04-25T07:07:05;8.80;99.90
20070;DHT22;10195;50.868;4.382;2023-04-25T07:09:31;8.50;99.90
20070;DHT22;10195;50.868;4.382;2023-04-25T07:11:59;8.40;99.90
20070;DHT22;10195;50.868;4.382;2023-04-25T07:14:27;8.40;99.90
20070;DHT22;10195;50.868;4.382;2023-04-25T07:16:52;8.60;99.90
20070;DHT22;10195;50.868;4.382;2023-04-25T07:19:18;8.70;99.90
20070;DHT22;10195;50.868;4.382;2023-04-25T07:21:44;8.70;99.90
20070;DHT22;10195;50.868;4.382;2023-04-25T07:24:09;8.80;99.90
20070;DHT22;10195;50.868;4.382;2023-04-25T07:26:35;9.10;99.90
20070;DHT22;10195;50.868;4.382;2023-04-25T07:29:01;9.00;99.90
20070;DHT22;10195;50.868;4.382;2023-04-25T07:31:27;8.80;99.90
20070;DHT22;10195;50.868;4.382;2023-04-25T07:33:53;9.00;99.90
20070;DHT22;10195;50.868;4.382;2023-04-25T07:36:18;9.10;99.90
20070;DHT22;10195;50.868;4.382;2023-04-25T07:38:44;9.00;99.90
20070;DHT22;10195;50.868;4.382;2023-04-25T07:41:10;8.90;99.90
20070;DHT22;10195;50.868;4.382;2023-04-25T07:43:37;9.00;99.90
20070;DHT22;10195;50.868;4.382;2023-04-25T07:46:02;9.30;99.90
20070;DHT22;10195;50.868;4.382;2023-04-25T07:48:28;9.50;99.90
20070;DHT22;10195;50.868;4.382;2023-04-25T07:50:54;9.50;99.90
20070;DHT22;10195;50.868;4.382;2023-04-25T07:53:21;9.70;99.90
20070;DHT22;10195;50.868;4.382;2023-04-25T07:55:47;9.60;99.90
20070;DHT22;10195;50.868;4.382;2023-04-25T07:58:13;9.30;99.90
20070;DHT22;10195;50.868;4.382;2023-04-25T08:00:40;9.20;99.90
20070;DHT22;10195;50.868;4.382;2023-04-25T08:03:06;9.10;99.90
20070;DHT22;10195;50.868;4.382;2023-04-25T08:05:32;9.10;99.90
20070;DHT22;10195;50.868;4.382;2023-04-25T08:07:59;9.10;99.90
20070;DHT22;10195;50.868;4.382;2023-04-25T08:10:24;9.00;99.90
20070;DHT22;10195;50.868;4.382;2023-04-25T08:12:50;9.20;99.90
20070;DHT22;10195;50.868;4.382;2023-04-25T08:15:16;9.60;99.90
20070;DHT22;10195;50.868;4.382;2023-04-25T08:17:41;10.00;99.90
20070;DHT22;10195;50.868;4.382;2023-04-25T08:20:09;10.00;99.90
20070;DHT22;10195;50.868;4.382;2023-04-25T08:22:36;10.30;99.90
20070;DHT22;10195;50.868;4.382;2023-04-25T08:25:01;10.80;99.90
20070;DHT22;10195;50.868;4.382;2023-04-25T08:27:27;11.00;99.90
20070;DHT22;10195;50.868;4.382;2023-04-25T08:29:53;11.40;99.90
20070;DHT22;10195;50.868;4.382;2023-04-25T08:32:21;11.10;99.90
20070;DHT22;10195;50.868;4.382;2023-04-25T08:34:47;10.60;99.90
20070;DHT22;10195;50.868;4.382;2023-04-25T08:37:13;10.60;99.90
20070;DHT22;10195;50.868;4.382;2023-04-25T08:39:38;10.50;99.90
20070;DHT22;10195;50.868;4.382;2023-04-25T08:42:05;10.30;99.90
20070;DHT22;10195;50.868;4.382;2023-04-25T08:44:34;10.20;99.90
20070;DHT22;10195;50.868;4.382;2023-04-25T08:47:03;10.90;99.90
20070;DHT22;10195;50.868;4.382;2023-04-25T08:49:32;11.00;99.90
20070;DHT22;10195;50.868;4.382;2023-04-25T08:52:03;11.10;99.90
20070;DHT22;10195;50.868;4.382;2023-04-25T08:54:32;10.70;99.90
20070;DHT22;10195;50.868;4.382;2023-04-25T08:57:02;10.70;99.90
20070;DHT22;10195;50.868;4.382;2023-04-25T08:59:30;10.70;99.90
20070;DHT22;10195;50.868;4.382;2023-04-25T09:01:57;10.50;99.90
20070;DHT22;10195;50.868;4.382;2023-04-25T09:04:23;10.90;99.90
20070;DHT22;10195;50.868;4.382;2023-04-25T09:06:50;10.90;99.90
20070;DHT22;10195;50.868;4.382;2023-04-25T09:09:17;11.30;99.90
20070;DHT22;10195;50.868;4.382;2023-04-25T09:11:43;11.30;99.90
20070;DHT22;10195;50.868;4.382;2023-04-25T09:14:17;11.20;99.90
20070;DHT22;10195;50.868;4.382;2023-04-25T09:17:01;10.90;99.90
20070;DHT22;10195;50.868;4.382;2023-04-25T09:19:44;10.70;99.90
20070;DHT22;10195;50.868;4.382;2023-04-25T09:22:12;10.40;99.90
20070;DHT22;10195;50.868;4.382;2023-04-25T09:24:43;10.30;99.90
20070;DHT22;10195;50.868;4.382;2023-04-25T09:27:11;10.30;99.90
20070;DHT22;10195;50.868;4.382;2023-04-25T09:29:39;10.00;99.90
20070;DHT22;10195;50.868;4.382;2023-04-25T09:32:27;9.80;99.90
20070;DHT22;10195;50.868;4.382;2023-04-25T09:34:57;9.80;99.90
20070;DHT22;10195;50.868;4.382;2023-04-25T09:39:55;10.40;99.90
20070;DHT22;10195;50.868;4.382;2023-04-25T09:42:26;10.40;99.90
20070;DHT22;10195;50.868;4.382;2023-04-25T09:44:56;10.10;99.90
20070;DHT22;10195;50.868;4.382;2023-04-25T09:47:26;10.50;99.90
20070;DHT22;10195;50.868;4.382;2023-04-25T09:49:53;11.00;99.90
20070;DHT22;10195;50.868;4.382;2023-04-25T09:52:21;11.20;99.90
20070;DHT22;10195;50.868;4.382;2023-04-25T09:54:48;10.90;99.90
20070;DHT22;10195;50.868;4.382;2023-04-25T09:57:19;11.00;99.90
20070;DHT22;10195;50.868;4.382;2023-04-25T09:59:49;12.00;99.90
20070;DHT22;10195;50.868;4.382;2023-04-25T10:02:18;12.30;99.90
20070;DHT22;10195;50.868;4.382;2023-04-25T10:04:48;12.00;99.90
20070;DHT22;10195;50.868;4.382;2023-04-25T10:07:15;12.30;99.90
20070;DHT22;10195;50.868;4.382;2023-04-25T10:09:42;12.60;99.90
20070;DHT22;10195;50.868;4.382;2023-04-25T10:12:11;12.10;99.90
20070;DHT22;10195;50.868;4.382;2023-04-25T10:14:37;11.80;99.90
20070;DHT22;10195;50.868;4.382;2023-04-25T10:17:04;11.60;99.90
20070;DHT22;10195;50.868;4.382;2023-04-25T10:19:32;11.50;99.90
20070;DHT22;10195;50.868;4.382;2023-04-25T10:22:18;11.90;99.90
20070;DHT22;10195;50.868;4.382;2023-04-25T10:24:46;11.80;99.90
20070;DHT22;10195;50.868;4.382;2023-04-25T10:27:12;11.60;99.90
20070;DHT22;10195;50.868;4.382;2023-04-25T10:29:38;11.80;99.90
20070;DHT22;10195;50.868;4.382;2023-04-25T10:32:08;11.80;99.90
20070;DHT22;10195;50.868;4.382;2023-04-25T10:34:41;11.90;99.90
20070;DHT22;10195;50.868;4.382;2023-04-25T10:37:09;11.90;99.90
20070;DHT22;10195;50.868;4.382;2023-04-25T10:39:39;11.60;99.90
20070;DHT22;10195;50.868;4.382;2023-04-25T10:42:05;11.40;99.90
20070;DHT22;10195;50.868;4.382;2023-04-25T10:44:33;11.50;99.90
20070;DHT22;10195;50.868;4.382;2023-04-25T10:47:00;11.70;99.90
20070;DHT22;10195;50.868;4.382;2023-04-25T10:49:37;11.90;99.90
20070;DHT22;10195;50.868;4.382;2023-04-25T10:54:51;11.30;99.90
20070;DHT22;10195;50.868;4.382;2023-04-25T10:57:41;11.70;99.90
20070;DHT22;10195;50.868;4.382;2023-04-25T11:00:19;11.70;99.90
20070;DHT22;10195;50.868;4.382;2023-04-25T11:02:58;11.80;99.90
20070;DHT22;10195;50.868;4.382;2023-04-25T11:05:32;11.70;99.90
20070;DHT22;10195;50.868;4.382;2023-04-25T11:07:58;11.20;99.90
20070;DHT22;10195;50.868;4.382;2023-04-25T11:10:29;10.80;99.90
20070;DHT22;10195;50.868;4.382;2023-04-25T11:12:56;10.60;99.90
20070;DHT22;10195;50.868;4.382;2023-04-25T11:15:22;10.50;99.90
20070;DHT22;10195;50.868;4.382;2023-04-25T11:17:47;10.50;99.90
20070;DHT22;10195;50.868;4.382;2023-04-25T11:20:14;10.60;99.90
20070;DHT22;10195;50.868;4.382;2023-04-25T11:22:41;10.80;99.90
20070;DHT22;10195;50.868;4.382;2023-04-25T11:25:10;11.00;99.90
20070;DHT22;10195;50.868;4.382;2023-04-25T11:27:52;11.00;99.90
20070;DHT22;10195;50.868;4.382;2023-04-25T11:30:19;10.70;99.90
20070;DHT22;10195;50.868;4.382;2023-04-25T11:32:45;10.50;99.90
20070;DHT22;10195;50.868;4.382;2023-04-25T11:35:11;10.90;99.90
20070;DHT22;10195;50.868;4.382;2023-04-25T11:37:39;10.60;99.90
20070;DHT22;10195;50.868;4.382;2023-04-25T11:40:06;10.50;99.90
20070;DHT22;10195;50.868;4.382;2023-04-25T11:42:32;10.50;99.90
20070;DHT22;10195;50.868;4.382;2023-04-25T11:44:59;10.60;99.90
20070;DHT22;10195;50.868;4.382;2023-04-25T11:47:30;10.80;99.90
20070;DHT22;10195;50.868;4.382;2023-04-25T11:49:57;10.90;99.90
20070;DHT22;10195;50.868;4.382;2023-04-25T11:52:23;10.80;99.90
20070;DHT22;10195;50.868;4.382;2023-04-25T11:54:48;11.30;99.90
20070;DHT22;10195;50.868;4.382;2023-04-25T11:57:14;11.20;99.90
20070;DHT22;10195;50.868;4.382;2023-04-25T11:59:39;10.90;99.90
20070;DHT22;10195;50.868;4.382;2023-04-25T12:02:05;10.90;99.90
20070;DHT22;10195;50.868;4.382;2023-04-25T12:04:32;11.00;99.90
20070;DHT22;10195;50.868;4.382;2023-04-25T12:06:59;11.00;99.90
20070;DHT22;10195;50.868;4.382;2023-04-25T12:09:31;10.90;99.90
20070;DHT22;10195;50.868;4.382;2023-04-25T12:11:59;11.10;99.90
20070;DHT22;10195;50.868;4.382;2023-04-25T12:14:30;11.10;99.90
20070;DHT22;10195;50.868;4.382;2023-04-25T12:16:59;11.10;99.90
20070;DHT22;10195;50.868;4.382;2023-04-25T12:19:26;11.10;99.90
20070;DHT22;10195;50.868;4.382;2023-04-25T12:21:52;10.80;99.90
20070;DHT22;10195;50.868;4.382;2023-04-25T12:24:24;10.60;99.90
20070;DHT22;10195;50.868;4.382;2023-04-25T12:27:00;10.70;99.90
20070;DHT22;10195;50.868;4.382;2023-04-25T12:29:31;10.60;99.90
20070;DHT22;10195;50.868;4.382;2023-04-25T12:31:57;10.70;99.90
20070;DHT22;10195;50.868;4.382;2023-04-25T12:34:23;11.00;99.90
20070;DHT22;10195;50.868;4.382;2023-04-25T12:36:51;11.50;99.90
20070;DHT22;10195;50.868;4.382;2023-04-25T12:39:18;11.90;99.90
20070;DHT22;10195;50.868;4.382;2023-04-25T12:41:45;12.30;99.90
20070;DHT22;10195;50.868;4.382;2023-04-25T12:44:12;12.30;99.90
20070;DHT22;10195;50.868;4.382;2023-04-25T12:46:40;12.10;99.90
20070;DHT22;10195;50.868;4.382;2023-04-25T12:49:09;12.50;99.90
20070;DHT22;10195;50.868;4.382;2023-04-25T12:51:36;12.50;99.90
20070;DHT22;10195;50.868;4.382;2023-04-25T12:54:03;12.10;99.90
20070;DHT22;10195;50.868;4.382;2023-04-25T12:56:30;11.80;99.90
20070;DHT22;10195;50.868;4.382;2023-04-25T12:58:56;11.80;99.90
20070;DHT22;10195;50.868;4.382;2023-04-25T13:01:22;11.30;99.90
20070;DHT22;10195;50.868;4.382;2023-04-25T13:03:48;11.20;99.90
20070;DHT22;10195;50.868;4.382;2023-04-25T13:06:15;11.40;99.90
20070;DHT22;10195;50.868;4.382;2023-04-25T13:08:41;11.30;99.90
20070;DHT22;10195;50.868;4.382;2023-04-25T13:11:07;11.10;99.90
20070;DHT22;10195;50.868;4.382;2023-04-25T13:13:33;11.00;99.90
20070;DHT22;10195;50.868;4.382;2023-04-25T13:16:03;10.80;99.90
20070;DHT22;10195;50.868;4.382;2023-04-25T13:18:30;10.80;99.90
20070;DHT22;10195;50.868;4.382;2023-04-25T13:20:56;10.90;99.90
20070;DHT22;10195;50.868;4.382;2023-04-25T13:23:24;11.10;99.90
20070;DHT22;10195;50.868;4.382;2023-04-25T13:25:50;11.30;99.90
20070;DHT22;10195;50.868;4.382;2023-04-25T13:28:17;11.30;99.90
20070;DHT22;10195;50.868;4.382;2023-04-25T13:30:43;11.30;99.90
20070;DHT22;10195;50.868;4.382;2023-04-25T13:33:09;11.90;99.90
20070;DHT22;10195;50.868;4.382;2023-04-25T13:35:37;12.00;99.90
20070;DHT22;10195;50.868;4.382;2023-04-25T13:38:03;12.40;99.90
20070;DHT22;10195;50.868;4.382;2023-04-25T13:40:29;12.40;99.90
20070;DHT22;10195;50.868;4.382;2023-04-25T13:42:55;12.00;99.90
20070;DHT22;10195;50.868;4.382;2023-04-25T13:45:21;11.70;99.90
20070;DHT22;10195;50.868;4.382;2023-04-25T13:47:47;11.70;99.90
20070;DHT22;10195;50.868;4.382;2023-04-25T13:50:13;11.80;99.90
20070;DHT22;10195;50.868;4.382;2023-04-25T13:52:40;12.10;99.90
20070;DHT22;10195;50.868;4.382;2023-04-25T13:55:06;11.70;99.90
20070;DHT22;10195;50.868;4.382;2023-04-25T13:57:33;11.70;99.90
20070;DHT22;10195;50.868;4.382;2023-04-25T14:00:01;11.70;99.90
20070;DHT22;10195;50.868;4.382;2023-04-25T14:02:32;11.50;99.90
20070;DHT22;10195;50.868;4.382;2023-04-25T14:04:57;11.60;99.90
20070;DHT22;10195;50.868;4.382;2023-04-25T14:07:25;11.70;99.90
20070;DHT22;10195;50.868;4.382;2023-04-25T14:09:50;11.80;99.90
20070;DHT22;10195;50.868;4.382;2023-04-25T14:12:17;11.60;99.90
20070;DHT22;10195;50.868;4.382;2023-04-25T14:14:43;11.80;99.90
20070;DHT22;10195;50.868;4.382;2023-04-25T14:17:09;11.90;99.90
20070;DHT22;10195;50.868;4.382;2023-04-25T14:19:35;11.70;99.90
20070;DHT22;10195;50.868;4.382;2023-04-25T14:22:02;11.50;99.90
20070;DHT22;10195;50.868;4.382;2023-04-25T14:24:28;11.80;99.90
20070;DHT22;10195;50.868;4.382;2023-04-25T14:26:54;12.00;99.90
20070;DHT22;10195;50.868;4.382;2023-04-25T14:29:20;12.10;99.90
20070;DHT22;10195;50.868;4.382;2023-04-25T14:31:45;12.30;99.90
20070;DHT22;10195;50.868;4.382;2023-04-25T14:34:11;12.40;99.90
20070;DHT22;10195;50.868;4.382;2023-04-25T14:36:37;12.40;99.90
20070;DHT22;10195;50.868;4.382;2023-04-25T14:39:03;12.70;99.90
20070;DHT22;10195;50.868;4.382;2023-04-25T14:41:30;12.60;99.90
20070;DHT22;10195;50.868;4.382;2023-04-25T14:43:57;12.30;99.90
20070;DHT22;10195;50.868;4.382;2023-04-25T14:46:23;12.00;99.90
20070;DHT22;10195;50.868;4.382;2023-04-25T14:48:49;12.00;99.90
20070;DHT22;10195;50.868;4.382;2023-04-25T14:51:15;11.90;99.90
20070;DHT22;10195;50.868;4.382;2023-04-25T14:53:42;12.00;99.90
20070;DHT22;10195;50.868;4.382;2023-04-25T14:56:07;12.30;99.90
20070;DHT22;10195;50.868;4.382;2023-04-25T14:58:34;12.50;99.90
20070;DHT22;10195;50.868;4.382;2023-04-25T15:01:00;12.50;99.90
20070;DHT22;10195;50.868;4.382;2023-04-25T15:03:26;12.50;99.90
20070;DHT22;10195;50.868;4.382;2023-04-25T15:05:53;12.30;99.90
20070;DHT22;10195;50.868;4.382;2023-04-25T15:08:20;11.90;99.90
20070;DHT22;10195;50.868;4.382;2023-04-25T15:10:46;11.90;99.90
20070;DHT22;10195;50.868;4.382;2023-04-25T15:13:12;11.60;99.90
20070;DHT22;10195;50.868;4.382;2023-04-25T15:15:37;11.70;99.90
20070;DHT22;10195;50.868;4.382;2023-04-25T15:18:04;11.70;99.90
20070;DHT22;10195;50.868;4.382;2023-04-25T15:20:30;11.80;99.90
20070;DHT22;10195;50.868;4.382;2023-04-25T15:22:57;12.00;99.90
20070;DHT22;10195;50.868;4.382;2023-04-25T15:25:23;11.90;99.90
20070;DHT22;10195;50.868;4.382;2023-04-25T15:27:49;11.80;99.90
20070;DHT22;10195;50.868;4.382;2023-04-25T15:30:17;11.80;99.90
20070;DHT22;10195;50.868;4.382;2023-04-25T15:32:44;12.10;99.90
20070;DHT22;10195;50.868;4.382;2023-04-25T15:35:10;12.30;99.90
20070;DHT22;10195;50.868;4.382;2023-04-25T15:37:37;12.30;99.90
20070;DHT22;10195;50.868;4.382;2023-04-25T15:40:07;12.10;99.90
20070;DHT22;10195;50.868;4.382;2023-04-25T15:42:43;11.90;99.90